Time;durP1;ratioP1;P1;durP2;ratioP2;P2;SDS_P1;SDS_P2;PMS_P1;PMS_P2;Temp;Humidity;BMP_temperature;BMP_pressure;BME280_temperature;BME280_humidity;BME280_pressure;Samples;Min_cycle;Max_cycle;Signal;HPM_P1;HPM_P2
2023/10/27 00:02:01;;;;;;;14.37;7.07;;;;;;;;;;5017613;28;20488;-87
2023/10/27 00:04:26;;;;;;;16.60;7.03;;;;;;;;;;5035497;28;20891;-88
2023/10/27 00:06:52;;;;;;;19.70;7.63;;;;;;;;;;5045695;28;20291;-88
2023/10/27 00:09:18;;;;;;;25.02;8.60;;;;;;;;;;5055046;28;20404;-88
2023/10/27 00:11:44;;;;;;;17.67;8.00;;;;;;;;;;5037204;28;20188;-88
2023/10/27 00:14:10;;;;;;;18.40;8.37;;;;;;;;;;5037258;28;20412;-87
2023/10/27 00:16:36;;;;;;;14.30;8.27;;;;;;;;;;5053742;28;20760;-88
2023/10/27 00:19:04;;;;;;;17.97;8.20;;;;;;;;;;5054937;28;20408;-87
2023/10/27 00:21:30;;;;;;;25.17;8.90;;;;;;;;;;5054724;28;20478;-87
2023/10/27 00:23:56;;;;;;;20.23;10.00;;;;;;;;;;5036870;28;20185;-87
2023/10/27 00:26:22;;;;;;;18.40;8.23;;;;;;;;;;5054896;28;20182;-87
2023/10/27 00:28:50;;;;;;;18.23;9.50;;;;;;;;;;5053407;28;20400;-87
2023/10/27 00:31:16;;;;;;;18.00;9.68;;;;;;;;;;5045440;28;20854;-87
2023/10/27 00:33:42;;;;;;;18.90;8.60;;;;;;;;;;5033680;28;20213;-87
2023/10/27 00:36:08;;;;;;;14.87;8.70;;;;;;;;;;5033485;28;20955;-86
2023/10/27 00:38:34;;;;;;;23.10;9.52;;;;;;;;;;5040130;28;20959;-87
2023/10/27 00:41:00;;;;;;;26.40;9.27;;;;;;;;;;5037138;28;20256;-87
2023/10/27 00:43:26;;;;;;;15.20;8.97;;;;;;;;;;5036049;28;20882;-87
2023/10/27 00:45:53;;;;;;;23.80;9.10;;;;;;;;;;5052725;28;20419;-87
2023/10/27 00:48:20;;;;;;;26.73;9.88;;;;;;;;;;5054776;28;20812;-88
2023/10/27 00:50:46;;;;;;;14.02;7.60;;;;;;;;;;5053037;28;20278;-87
2023/10/27 00:53:14;;;;;;;21.75;9.23;;;;;;;;;;5053411;28;20552;-88
2023/10/27 00:55:41;;;;;;;14.60;8.73;;;;;;;;;;5052737;28;20182;-88
2023/10/27 00:58:10;;;;;;;18.80;7.85;;;;;;;;;;5053058;28;20182;-88
2023/10/27 01:00:37;;;;;;;23.48;8.32;;;;;;;;;;5054063;28;20225;-89
2023/10/27 01:03:04;;;;;;;14.73;8.63;;;;;;;;;;5053240;28;20209;-87
2023/10/27 01:05:31;;;;;;;24.13;8.90;;;;;;;;;;5053165;28;20225;-87
2023/10/27 01:07:57;;;;;;;22.40;8.15;;;;;;;;;;5053769;28;20200;-87
2023/10/27 01:10:23;;;;;;;14.50;8.65;;;;;;;;;;5036189;28;20194;-87
2023/10/27 01:12:50;;;;;;;15.85;7.30;;;;;;;;;;5030174;28;20194;-87
2023/10/27 01:15:17;;;;;;;16.20;7.63;;;;;;;;;;5016898;28;20186;-87
2023/10/27 01:17:43;;;;;;;14.07;6.93;;;;;;;;;;5017560;28;20193;-88
2023/10/27 01:20:09;;;;;;;12.85;7.38;;;;;;;;;;5028822;28;20194;-87
2023/10/27 01:22:42;;;;;;;13.13;6.93;;;;;;;;;;5016344;28;20230;-87
2023/10/27 01:25:08;;;;;;;11.07;5.35;;;;;;;;;;5033457;28;20610;-87
2023/10/27 01:27:34;;;;;;;13.88;6.82;;;;;;;;;;5034370;28;20174;-88
2023/10/27 01:30:00;;;;;;;16.60;6.73;;;;;;;;;;5032430;28;20189;-87
2023/10/27 01:32:26;;;;;;;12.23;5.53;;;;;;;;;;5032859;28;20515;-88
2023/10/27 01:34:52;;;;;;;15.43;6.00;;;;;;;;;;5032572;28;20901;-88
2023/10/27 01:37:18;;;;;;;14.07;6.18;;;;;;;;;;5032860;28;20417;-88
2023/10/27 01:39:46;;;;;;;13.68;6.00;;;;;;;;;;5032739;28;20188;-87
2023/10/27 01:42:12;;;;;;;11.25;5.65;;;;;;;;;;5035995;28;20208;-88
2023/10/27 01:44:38;;;;;;;12.85;5.50;;;;;;;;;;5049016;28;20549;-88
2023/10/27 01:47:04;;;;;;;17.50;6.27;;;;;;;;;;5016513;28;20178;-87
2023/10/27 01:49:30;;;;;;;16.80;5.85;;;;;;;;;;5016662;28;20432;-88
2023/10/27 01:51:56;;;;;;;14.77;5.23;;;;;;;;;;5032567;28;20657;-87
2023/10/27 01:54:22;;;;;;;17.57;5.70;;;;;;;;;;5016505;28;20428;-87
2023/10/27 01:56:48;;;;;;;15.13;5.85;;;;;;;;;;5019998;28;20425;-88
2023/10/27 01:59:14;;;;;;;12.35;6.07;;;;;;;;;;5020248;28;20218;-87
2023/10/27 02:01:40;;;;;;;13.15;6.07;;;;;;;;;;5036026;28;20248;-89
2023/10/27 02:04:06;;;;;;;11.38;5.22;;;;;;;;;;5036682;28;20552;-87
2023/10/27 02:06:32;;;;;;;14.30;6.40;;;;;;;;;;5037528;28;20189;-87
2023/10/27 02:08:58;;;;;;;20.23;6.00;;;;;;;;;;5036055;28;20428;-88
2023/10/27 02:11:24;;;;;;;11.50;5.90;;;;;;;;;;5019823;28;20471;-88
2023/10/27 02:13:50;;;;;;;16.13;5.20;;;;;;;;;;5036550;28;20414;-88
2023/10/27 02:16:16;;;;;;;15.85;4.78;;;;;;;;;;5036294;28;20417;-88
2023/10/27 02:18:42;;;;;;;15.30;6.30;;;;;;;;;;5035969;28;20324;-88
2023/10/27 02:21:08;;;;;;;18.17;5.60;;;;;;;;;;5037498;28;20419;-88
2023/10/27 02:23:34;;;;;;;16.30;5.78;;;;;;;;;;5037555;28;20551;-88
2023/10/27 02:26:00;;;;;;;14.32;6.35;;;;;;;;;;5036122;28;20279;-88
2023/10/27 02:28:26;;;;;;;16.13;6.07;;;;;;;;;;5036044;28;20212;-88
2023/10/27 02:30:52;;;;;;;24.93;5.87;;;;;;;;;;5019225;28;20182;-88
2023/10/27 02:33:18;;;;;;;15.30;6.13;;;;;;;;;;5036083;28;20428;-87
2023/10/27 02:35:44;;;;;;;21.15;6.75;;;;;;;;;;5044777;28;20427;-88
2023/10/27 02:38:10;;;;;;;13.95;6.40;;;;;;;;;;5039496;28;20182;-88
2023/10/27 02:40:36;;;;;;;16.33;6.68;;;;;;;;;;5055789;28;20174;-87
2023/10/27 02:43:02;;;;;;;16.43;6.83;;;;;;;;;;5039186;28;20260;-87
2023/10/27 02:45:29;;;;;;;17.08;7.00;;;;;;;;;;5016147;28;20430;-87
2023/10/27 02:47:55;;;;;;;15.27;6.32;;;;;;;;;;5016685;28;20196;-87
2023/10/27 02:50:21;;;;;;;11.80;5.50;;;;;;;;;;5015907;28;20179;-87
2023/10/27 02:52:47;;;;;;;12.77;6.32;;;;;;;;;;5016940;28;20446;-88
2023/10/27 02:55:13;;;;;;;16.92;6.30;;;;;;;;;;5015671;28;20655;-87
2023/10/27 02:57:39;;;;;;;16.75;6.32;;;;;;;;;;5027076;28;20221;-87
2023/10/27 03:00:07;;;;;;;13.48;6.88;;;;;;;;;;5038007;28;20237;-87
2023/10/27 03:02:33;;;;;;;16.52;6.57;;;;;;;;;;5055630;28;20213;-88
2023/10/27 03:04:59;;;;;;;14.98;5.85;;;;;;;;;;5055160;28;20181;-87
2023/10/27 03:07:25;;;;;;;12.73;6.27;;;;;;;;;;5037984;28;20525;-88
2023/10/27 03:09:52;;;;;;;17.00;6.70;;;;;;;;;;5054800;28;20507;-88
2023/10/27 03:12:19;;;;;;;13.27;6.45;;;;;;;;;;5056413;28;20178;-87
2023/10/27 03:14:45;;;;;;;12.10;5.55;;;;;;;;;;5055213;28;20276;-87
2023/10/27 03:17:11;;;;;;;13.55;6.38;;;;;;;;;;5055165;28;20220;-87
2023/10/27 03:19:37;;;;;;;21.00;7.45;;;;;;;;;;5055184;28;20182;-86
2023/10/27 03:22:04;;;;;;;11.67;5.90;;;;;;;;;;5054978;28;20208;-86
2023/10/27 03:24:30;;;;;;;13.63;5.80;;;;;;;;;;5055352;28;20416;-86
2023/10/27 03:26:56;;;;;;;16.92;6.22;;;;;;;;;;5054950;28;20276;-87
2023/10/27 03:29:22;;;;;;;22.15;6.68;;;;;;;;;;5055113;28;20177;-86
2023/10/27 03:31:50;;;;;;;13.37;6.93;;;;;;;;;;5038349;28;20235;-87
2023/10/27 03:34:16;;;;;;;15.20;5.70;;;;;;;;;;5056440;28;20408;-86
2023/10/27 03:36:42;;;;;;;16.92;5.85;;;;;;;;;;5038607;28;20186;-86
2023/10/27 03:39:08;;;;;;;16.73;6.20;;;;;;;;;;5054949;28;20553;-87
2023/10/27 03:41:34;;;;;;;15.87;5.37;;;;;;;;;;5055440;28;20231;-86
2023/10/27 03:44:00;;;;;;;13.80;5.90;;;;;;;;;;5040018;28;20472;-86
2023/10/27 03:46:26;;;;;;;15.82;5.53;;;;;;;;;;5020064;28;20425;-86
2023/10/27 03:48:52;;;;;;;18.03;6.57;;;;;;;;;;5020067;28;20617;-87
2023/10/27 03:51:18;;;;;;;11.93;5.30;;;;;;;;;;5047956;28;20451;-86
2023/10/27 03:53:44;;;;;;;17.67;6.13;;;;;;;;;;5017839;28;20525;-86
2023/10/27 03:56:10;;;;;;;19.03;4.87;;;;;;;;;;5034042;28;20420;-86
2023/10/27 03:58:36;;;;;;;11.77;5.03;;;;;;;;;;5018223;28;20784;-86
2023/10/27 04:01:03;;;;;;;12.83;6.67;;;;;;;;;;5048128;28;20464;-86
2023/10/27 04:03:31;;;;;;;14.52;5.88;;;;;;;;;;5037871;28;20472;-86
2023/10/27 04:05:57;;;;;;;14.88;4.63;;;;;;;;;;5038017;28;20186;-87
2023/10/27 04:08:23;;;;;;;16.53;5.73;;;;;;;;;;5054703;28;20181;-86
2023/10/27 04:10:49;;;;;;;15.60;5.10;;;;;;;;;;5054299;28;20491;-86
2023/10/27 04:13:15;;;;;;;15.07;5.70;;;;;;;;;;5054644;28;20954;-85
2023/10/27 04:15:44;;;;;;;20.80;6.90;;;;;;;;;;5054201;28;20524;-86
2023/10/27 04:18:10;;;;;;;13.13;5.65;;;;;;;;;;5037569;28;20916;-86
2023/10/27 04:20:38;;;;;;;18.17;5.20;;;;;;;;;;5053734;28;20272;-86
2023/10/27 04:23:04;;;;;;;14.13;5.93;;;;;;;;;;5054673;28;20463;-87
2023/10/27 04:25:30;;;;;;;13.07;5.85;;;;;;;;;;5054118;28;20217;-87
2023/10/27 04:27:56;;;;;;;14.75;5.38;;;;;;;;;;5055156;28;20181;-87
2023/10/27 04:30:26;;;;;;;13.63;5.80;;;;;;;;;;5053886;28;20543;-86
2023/10/27 04:32:52;;;;;;;20.25;5.05;;;;;;;;;;5053648;28;21099;-87
2023/10/27 04:35:18;;;;;;;16.40;5.35;;;;;;;;;;5037599;28;20186;-86
2023/10/27 04:37:44;;;;;;;10.33;5.40;;;;;;;;;;5053836;28;20188;-86
2023/10/27 04:40:10;;;;;;;10.20;4.93;;;;;;;;;;5017236;28;20901;-86
2023/10/27 04:42:36;;;;;;;10.98;5.07;;;;;;;;;;5017115;28;20214;-87
2023/10/27 04:45:02;;;;;;;19.02;6.13;;;;;;;;;;5033551;28;20269;-86
2023/10/27 04:47:28;;;;;;;13.70;5.32;;;;;;;;;;5034764;28;20174;-86
2023/10/27 04:49:54;;;;;;;10.60;5.28;;;;;;;;;;5033404;28;20253;-87
2023/10/27 04:52:20;;;;;;;9.37;5.40;;;;;;;;;;5033373;28;20229;-87
2023/10/27 04:54:46;;;;;;;10.73;5.30;;;;;;;;;;5017113;28;20421;-88
2023/10/27 04:57:12;;;;;;;17.27;5.23;;;;;;;;;;5033317;28;20417;-88
2023/10/27 04:59:38;;;;;;;14.90;5.37;;;;;;;;;;5024294;28;20424;-88
2023/10/27 05:02:04;;;;;;;11.63;5.57;;;;;;;;;;5053425;28;20480;-87
2023/10/27 05:04:30;;;;;;;10.97;6.13;;;;;;;;;;5038038;28;20522;-88
2023/10/27 05:06:58;;;;;;;13.57;5.27;;;;;;;;;;5036778;28;20419;-88
2023/10/27 05:09:24;;;;;;;10.27;5.25;;;;;;;;;;5036910;28;20517;-88
2023/10/27 05:11:50;;;;;;;15.60;5.95;;;;;;;;;;5053661;28;20201;-89
2023/10/27 05:14:17;;;;;;;11.73;5.38;;;;;;;;;;5054955;28;20166;-88
2023/10/27 05:16:43;;;;;;;13.85;5.55;;;;;;;;;;5036940;28;20280;-89
2023/10/27 05:19:09;;;;;;;20.97;5.40;;;;;;;;;;5036546;28;20209;-88
2023/10/27 05:21:35;;;;;;;13.02;5.55;;;;;;;;;;5053295;28;20974;-88
2023/10/27 05:24:01;;;;;;;12.00;4.93;;;;;;;;;;5052443;28;20300;-88
2023/10/27 05:26:27;;;;;;;11.35;5.95;;;;;;;;;;5052882;28;20427;-88
2023/10/27 05:28:53;;;;;;;10.57;5.85;;;;;;;;;;5052049;28;20693;-87
2023/10/27 05:31:19;;;;;;;14.53;6.17;;;;;;;;;;5043966;28;20285;-85
2023/10/27 05:33:45;;;;;;;12.75;5.78;;;;;;;;;;5020379;28;20624;-84
2023/10/27 05:36:11;;;;;;;12.03;6.53;;;;;;;;;;5037891;28;20238;-85
2023/10/27 05:38:37;;;;;;;13.43;5.40;;;;;;;;;;5038078;28;20404;-85
2023/10/27 05:41:03;;;;;;;13.30;5.80;;;;;;;;;;5036387;28;20189;-85
2023/10/27 05:43:29;;;;;;;16.08;5.65;;;;;;;;;;5037959;28;20232;-85
2023/10/27 05:45:55;;;;;;;11.27;5.22;;;;;;;;;;5036495;28;20213;-86
2023/10/27 05:48:21;;;;;;;11.65;5.70;;;;;;;;;;5037689;28;20189;-85
2023/10/27 05:50:47;;;;;;;9.73;5.57;;;;;;;;;;5036759;28;20190;-85
2023/10/27 05:53:15;;;;;;;9.47;5.87;;;;;;;;;;5035777;28;20748;-85
2023/10/27 05:55:41;;;;;;;13.13;5.75;;;;;;;;;;5037557;28;20401;-85
2023/10/27 05:58:07;;;;;;;8.37;5.17;;;;;;;;;;5036125;28;20174;-85
2023/10/27 06:00:33;;;;;;;8.95;6.50;;;;;;;;;;5036291;28;20889;-84
2023/10/27 06:02:59;;;;;;;12.65;5.85;;;;;;;;;;5035961;28;20216;-85
2023/10/27 06:05:25;;;;;;;13.83;5.93;;;;;;;;;;5020260;28;20174;-84
2023/10/27 06:07:51;;;;;;;14.93;6.47;;;;;;;;;;5019712;28;20413;-84
2023/10/27 06:10:18;;;;;;;13.48;5.10;;;;;;;;;;5019579;28;20285;-84
2023/10/27 06:12:44;;;;;;;11.40;5.30;;;;;;;;;;5035974;28;20232;-84
2023/10/27 06:15:11;;;;;;;13.23;6.45;;;;;;;;;;5035938;28;20189;-84
2023/10/27 06:17:37;;;;;;;12.88;5.57;;;;;;;;;;5036018;28;20550;-84
2023/10/27 06:20:03;;;;;;;13.77;6.03;;;;;;;;;;5036988;28;20208;-84
2023/10/27 06:22:32;;;;;;;8.40;5.70;;;;;;;;;;5035860;28;20476;-84
2023/10/27 06:24:58;;;;;;;10.43;5.82;;;;;;;;;;5035065;28;20638;-85
2023/10/27 06:27:24;;;;;;;14.53;6.73;;;;;;;;;;5049776;28;20255;-84
2023/10/27 06:29:50;;;;;;;10.90;5.63;;;;;;;;;;5051231;28;20424;-84
2023/10/27 06:32:16;;;;;;;8.07;4.80;;;;;;;;;;5036999;28;20208;-83
2023/10/27 06:34:43;;;;;;;7.15;5.43;;;;;;;;;;5035926;28;20237;-83
2023/10/27 06:37:09;;;;;;;8.18;4.60;;;;;;;;;;5019176;28;20182;-84
2023/10/27 06:39:35;;;;;;;7.63;4.47;;;;;;;;;;5019164;28;20186;-83
2023/10/27 06:42:02;;;;;;;8.77;4.40;;;;;;;;;;5033890;28;20408;-83
2023/10/27 06:44:28;;;;;;;8.75;4.13;;;;;;;;;;5031784;28;20511;-79
2023/10/27 06:46:54;;;;;;;8.75;4.00;;;;;;;;;;5057159;28;20592;-79
2023/10/27 06:49:20;;;;;;;10.07;3.73;;;;;;;;;;5052974;28;20197;-80
2023/10/27 06:51:47;;;;;;;7.25;4.45;;;;;;;;;;5036175;28;20494;-79
2023/10/27 06:54:13;;;;;;;9.60;5.07;;;;;;;;;;5036089;28;20582;-80
2023/10/27 06:56:39;;;;;;;7.68;4.35;;;;;;;;;;5037904;28;20262;-80
2023/10/27 06:59:05;;;;;;;7.37;4.10;;;;;;;;;;5035682;28;20602;-80
2023/10/27 07:01:31;;;;;;;7.15;3.30;;;;;;;;;;5037158;28;20464;-80
2023/10/27 07:03:58;;;;;;;8.70;6.22;;;;;;;;;;5037339;28;20204;-80
2023/10/27 07:06:24;;;;;;;9.15;4.38;;;;;;;;;;5043653;28;20280;-80
2023/10/27 07:08:49;;;;;;;10.50;4.43;;;;;;;;;;5056258;28;20205;-80
2023/10/27 07:11:15;;;;;;;10.60;4.10;;;;;;;;;;5056217;28;20420;-80
2023/10/27 07:13:42;;;;;;;7.43;4.57;;;;;;;;;;5056375;28;20915;-81
2023/10/27 07:16:08;;;;;;;5.70;3.53;;;;;;;;;;5039313;28;20424;-80
2023/10/27 07:18:34;;;;;;;5.10;4.00;;;;;;;;;;5056253;28;20189;-80
2023/10/27 07:21:00;;;;;;;5.53;4.23;;;;;;;;;;5055980;28;20450;-80
2023/10/27 07:23:28;;;;;;;9.40;4.57;;;;;;;;;;5056827;28;20464;-81
2023/10/27 07:25:54;;;;;;;9.05;4.50;;;;;;;;;;5039896;28;20787;-81
2023/10/27 07:28:20;;;;;;;5.87;3.27;;;;;;;;;;5048522;28;20218;-80
2023/10/27 07:30:46;;;;;;;8.10;4.03;;;;;;;;;;5043445;28;20416;-80
2023/10/27 07:33:13;;;;;;;8.13;3.80;;;;;;;;;;5039343;28;20427;-81
2023/10/27 07:35:39;;;;;;;7.25;4.38;;;;;;;;;;5057424;28;20516;-81
2023/10/27 07:38:05;;;;;;;7.35;3.47;;;;;;;;;;5055763;28;20648;-80
2023/10/27 07:40:34;;;;;;;7.53;4.00;;;;;;;;;;5056819;28;20269;-80
2023/10/27 07:43:00;;;;;;;5.82;3.80;;;;;;;;;;5056604;28;20210;-80
2023/10/27 07:45:26;;;;;;;8.67;3.57;;;;;;;;;;5056594;28;20181;-81
2023/10/27 07:47:52;;;;;;;7.47;3.75;;;;;;;;;;5056467;28;20404;-80
2023/10/27 07:50:18;;;;;;;7.40;3.75;;;;;;;;;;5055499;28;20264;-80
2023/10/27 07:52:45;;;;;;;6.75;3.50;;;;;;;;;;5054844;28;20186;-80
2023/10/27 07:55:11;;;;;;;5.90;3.33;;;;;;;;;;5055129;28;20178;-80
2023/10/27 07:57:37;;;;;;;6.47;3.30;;;;;;;;;;5036598;28;20582;-80
2023/10/27 08:00:04;;;;;;;5.53;3.80;;;;;;;;;;5034838;28;20245;-80
2023/10/27 08:02:33;;;;;;;8.32;3.55;;;;;;;;;;5036240;28;20209;-80
2023/10/27 08:04:59;;;;;;;4.63;2.65;;;;;;;;;;5035291;28;20217;-80
2023/10/27 08:07:24;;;;;;;3.40;2.72;;;;;;;;;;5036372;28;20231;-80
2023/10/27 08:09:51;;;;;;;6.93;3.00;;;;;;;;;;5036530;28;20182;-80
2023/10/27 08:12:17;;;;;;;10.45;3.40;;;;;;;;;;5035003;28;20409;-79
2023/10/27 08:14:44;;;;;;;6.55;2.40;;;;;;;;;;5036090;28;20182;-80
2023/10/27 08:17:10;;;;;;;5.78;2.60;;;;;;;;;;5034734;28;20194;-80
2023/10/27 08:19:39;;;;;;;5.15;3.25;;;;;;;;;;5034939;28;20182;-80
2023/10/27 08:22:05;;;;;;;2.75;2.55;;;;;;;;;;5036158;28;20213;-80
2023/10/27 08:24:31;;;;;;;2.53;2.03;;;;;;;;;;5036211;28;20185;-80
2023/10/27 08:26:57;;;;;;;5.87;3.13;;;;;;;;;;5036125;28;20174;-81
2023/10/27 08:29:23;;;;;;;3.08;2.25;;;;;;;;;;5034462;28;20495;-80
2023/10/27 08:31:49;;;;;;;5.53;2.50;;;;;;;;;;5034938;28;20217;-81
2023/10/27 08:34:16;;;;;;;3.07;1.93;;;;;;;;;;5034761;28;20630;-80
2023/10/27 08:36:42;;;;;;;3.50;2.50;;;;;;;;;;5036113;28;20451;-80
2023/10/27 08:39:08;;;;;;;3.10;2.20;;;;;;;;;;5035802;28;20174;-81
2023/10/27 08:41:36;;;;;;;3.67;2.17;;;;;;;;;;5018347;28;20182;-80
2023/10/27 08:44:02;;;;;;;3.80;2.25;;;;;;;;;;5036006;28;20218;-80
2023/10/27 08:46:29;;;;;;;4.45;2.45;;;;;;;;;;5034390;28;20190;-80
2023/10/27 08:48:55;;;;;;;2.83;2.35;;;;;;;;;;5035626;28;20541;-80
2023/10/27 08:51:21;;;;;;;3.60;2.05;;;;;;;;;;5035434;28;20182;-80
2023/10/27 08:53:47;;;;;;;2.58;1.92;;;;;;;;;;5035860;28;20178;-80
2023/10/27 08:56:13;;;;;;;2.42;2.22;;;;;;;;;;5018163;28;20204;-80
2023/10/27 08:58:40;;;;;;;1.50;1.40;;;;;;;;;;5035734;28;20174;-80
2023/10/27 09:01:06;;;;;;;2.10;1.73;;;;;;;;;;5034714;28;20308;-81
2023/10/27 09:03:32;;;;;;;1.67;1.57;;;;;;;;;;5034876;28;20700;-81
2023/10/27 09:05:58;;;;;;;3.40;2.28;;;;;;;;;;5033409;28;20413;-80
2023/10/27 09:08:24;;;;;;;3.65;2.25;;;;;;;;;;5035017;28;20642;-80
2023/10/27 09:10:50;;;;;;;2.30;2.10;;;;;;;;;;5018149;28;20227;-81
2023/10/27 09:13:20;;;;;;;5.70;2.72;;;;;;;;;;5034228;28;20186;-79
2023/10/27 09:15:47;;;;;;;2.88;1.70;;;;;;;;;;5016159;28;20186;-79
2023/10/27 09:18:13;;;;;;;3.20;1.90;;;;;;;;;;5033438;28;20190;-81
2023/10/27 09:20:48;;;;;;;3.08;2.10;;;;;;;;;;5033773;28;20205;-80
2023/10/27 09:23:14;;;;;;;2.20;2.00;;;;;;;;;;5032513;28;20217;-79
2023/10/27 09:25:41;;;;;;;3.33;1.83;;;;;;;;;;5035390;28;20174;-79
2023/10/27 09:28:07;;;;;;;2.83;2.33;;;;;;;;;;5035328;28;20178;-79
2023/10/27 09:30:34;;;;;;;3.22;2.28;;;;;;;;;;5036049;28;20228;-79
2023/10/27 09:33:13;;;;;;;2.17;1.98;;;;;;;;;;5035101;28;20178;-79
2023/10/27 09:35:40;;;;;;;4.05;2.40;;;;;;;;;;5033602;28;20182;-79
2023/10/27 09:38:06;;;;;;;3.05;2.50;;;;;;;;;;5033376;28;20213;-80
2023/10/27 09:40:34;;;;;;;2.47;2.28;;;;;;;;;;5037722;28;20233;-80
2023/10/27 09:43:02;;;;;;;5.20;2.97;;;;;;;;;;5053607;28;20209;-80
2023/10/27 09:45:28;;;;;;;3.80;2.60;;;;;;;;;;5037331;28;20182;-79
2023/10/27 09:48:05;;;;;;;5.13;2.55;;;;;;;;;;5033072;28;20182;-80
2023/10/27 09:50:32;;;;;;;3.15;2.67;;;;;;;;;;5036462;28;20170;-80
2023/10/27 09:52:59;;;;;;;4.38;3.05;;;;;;;;;;5053877;28;20273;-80
2023/10/27 09:55:25;;;;;;;6.07;3.50;;;;;;;;;;5054092;28;20169;-80
2023/10/27 09:57:52;;;;;;;4.90;3.60;;;;;;;;;;5053698;28;20416;-80
2023/10/27 10:00:19;;;;;;;5.70;4.20;;;;;;;;;;5035361;28;20553;-80
2023/10/27 10:02:46;;;;;;;7.05;5.88;;;;;;;;;;5053732;28;20459;-79
2023/10/27 10:05:12;;;;;;;7.03;4.55;;;;;;;;;;5053242;28;20185;-80
2023/10/27 10:07:40;;;;;;;13.20;5.47;;;;;;;;;;5036533;28;20269;-80
2023/10/27 10:10:18;;;;;;;12.23;5.23;;;;;;;;;;5054441;28;20226;-80
2023/10/27 10:12:59;;;;;;;9.32;5.72;;;;;;;;;;5054623;28;20415;-80
2023/10/27 10:15:26;;;;;;;8.57;5.43;;;;;;;;;;5052209;28;20240;-80
2023/10/27 10:17:52;;;;;;;8.70;6.50;;;;;;;;;;5043076;28;20197;-81
2023/10/27 10:20:40;;;;;;;12.43;6.97;;;;;;;;;;5036894;28;20186;-80
2023/10/27 10:23:06;;;;;;;6.70;5.70;;;;;;;;;;5037115;28;20471;-81
2023/10/27 10:25:33;;;;;;;9.23;6.03;;;;;;;;;;5040220;28;20213;-80
2023/10/27 10:28:09;;;;;;;9.30;6.50;;;;;;;;;;5056400;28;20192;-81
2023/10/27 10:30:38;;;;;;;19.33;7.37;;;;;;;;;;5055447;28;20446;-81
2023/10/27 10:33:17;;;;;;;14.83;6.70;;;;;;;;;;5036289;28;20436;-81
2023/10/27 10:35:46;;;;;;;16.13;6.00;;;;;;;;;;5036132;28;20477;-81
2023/10/27 10:38:21;;;;;;;7.18;6.10;;;;;;;;;;5036339;28;20393;-81
2023/10/27 10:40:55;;;;;;;9.70;5.63;;;;;;;;;;5036143;28;20236;-80
2023/10/27 10:43:24;;;;;;;7.78;5.35;;;;;;;;;;5036016;28;20491;-80
2023/10/27 10:45:56;;;;;;;9.07;6.10;;;;;;;;;;5036919;28;20606;-81
2023/10/27 10:48:24;;;;;;;11.67;6.40;;;;;;;;;;5035857;28;20413;-81
2023/10/27 10:50:51;;;;;;;13.63;5.50;;;;;;;;;;5039446;28;20408;-81
2023/10/27 10:53:19;;;;;;;12.70;5.03;;;;;;;;;;5038348;28;20478;-81
2023/10/27 10:55:46;;;;;;;7.37;4.90;;;;;;;;;;5055913;28;20440;-81
2023/10/27 10:58:22;;;;;;;9.03;3.90;;;;;;;;;;5055769;28;20419;-81
2023/10/27 11:00:48;;;;;;;8.50;3.30;;;;;;;;;;5054723;28;20475;-80
2023/10/27 11:03:14;;;;;;;9.37;4.33;;;;;;;;;;5055546;28;20541;-81
2023/10/27 11:05:41;;;;;;;11.20;4.23;;;;;;;;;;5039045;28;20423;-81
2023/10/27 11:08:07;;;;;;;13.30;3.77;;;;;;;;;;5054851;28;20409;-82
2023/10/27 11:10:34;;;;;;;6.03;4.43;;;;;;;;;;5038407;28;20452;-82
2023/10/27 11:13:04;;;;;;;6.93;3.83;;;;;;;;;;5055728;28;20423;-80
2023/10/27 11:15:43;;;;;;;7.50;4.00;;;;;;;;;;5056302;28;20401;-80
2023/10/27 11:18:16;;;;;;;7.57;4.63;;;;;;;;;;5050347;28;20964;-80
2023/10/27 11:20:45;;;;;;;6.17;3.70;;;;;;;;;;5034239;28;20425;-80
2023/10/27 11:23:12;;;;;;;5.10;3.67;;;;;;;;;;5036045;28;20996;-80
2023/10/27 11:25:38;;;;;;;11.73;4.87;;;;;;;;;;5036626;28;20425;-80
2023/10/27 11:28:20;;;;;;;6.13;3.03;;;;;;;;;;5034744;28;20519;-80
2023/10/27 11:31:12;;;;;;;8.00;3.87;;;;;;;;;;5036067;28;20735;-81
2023/10/27 11:33:57;;;;;;;6.55;3.08;;;;;;;;;;5032894;28;20457;-80
2023/10/27 11:36:23;;;;;;;4.57;2.75;;;;;;;;;;5019889;28;20270;-81
2023/10/27 11:38:49;;;;;;;6.15;2.85;;;;;;;;;;5036597;28;20182;-81
2023/10/27 11:41:15;;;;;;;7.80;3.33;;;;;;;;;;5035979;28;20625;-81
2023/10/27 11:43:41;;;;;;;8.73;3.90;;;;;;;;;;5035609;28;20700;-80
2023/10/27 11:46:11;;;;;;;4.82;3.60;;;;;;;;;;5036507;28;20240;-81
2023/10/27 11:48:36;;;;;;;7.78;3.70;;;;;;;;;;5034249;28;20273;-80
2023/10/27 11:51:03;;;;;;;7.30;4.10;;;;;;;;;;5032001;28;20220;-81
2023/10/27 11:53:28;;;;;;;8.05;3.35;;;;;;;;;;5040028;28;20433;-80
2023/10/27 11:55:54;;;;;;;6.17;4.00;;;;;;;;;;5035285;28;20547;-81
2023/10/27 11:58:20;;;;;;;7.73;3.57;;;;;;;;;;5018218;28;20470;-81
2023/10/27 12:00:47;;;;;;;9.97;5.50;;;;;;;;;;5017461;28;20480;-81
2023/10/27 12:03:12;;;;;;;8.20;3.58;;;;;;;;;;5034657;28;20464;-81
2023/10/27 12:05:38;;;;;;;6.90;3.73;;;;;;;;;;5034710;28;20655;-81
2023/10/27 12:08:04;;;;;;;10.97;4.50;;;;;;;;;;5034021;28;20768;-81
2023/10/27 12:10:34;;;;;;;9.93;5.28;;;;;;;;;;5035061;28;20413;-80
2023/10/27 12:13:06;;;;;;;9.52;3.92;;;;;;;;;;5048487;28;20178;-80
2023/10/27 12:15:33;;;;;;;7.32;2.95;;;;;;;;;;5035676;28;20190;-80
2023/10/27 12:17:59;;;;;;;8.80;2.80;;;;;;;;;;5036684;28;20163;-80
2023/10/27 12:20:27;;;;;;;7.73;2.50;;;;;;;;;;5034309;28;20240;-79
2023/10/27 12:22:55;;;;;;;5.95;2.92;;;;;;;;;;5034531;28;20477;-80
2023/10/27 12:25:21;;;;;;;3.33;1.70;;;;;;;;;;5034007;28;20232;-80
2023/10/27 12:27:47;;;;;;;8.40;2.55;;;;;;;;;;5035962;28;20212;-80
2023/10/27 12:30:14;;;;;;;7.57;3.00;;;;;;;;;;5035292;28;20170;-80
2023/10/27 12:32:40;;;;;;;8.77;2.25;;;;;;;;;;5034404;28;20276;-80
2023/10/27 12:35:07;;;;;;;11.75;2.50;;;;;;;;;;5034028;28;20517;-80
2023/10/27 12:37:33;;;;;;;7.05;2.30;;;;;;;;;;5033421;28;20193;-81
2023/10/27 12:39:59;;;;;;;6.30;3.13;;;;;;;;;;5034602;28;20207;-81
2023/10/27 12:42:26;;;;;;;6.53;3.03;;;;;;;;;;5033585;28;20206;-81
2023/10/27 12:44:51;;;;;;;4.05;2.45;;;;;;;;;;5034696;28;20412;-80
2023/10/27 12:47:17;;;;;;;10.27;2.40;;;;;;;;;;5033496;28;20198;-81
2023/10/27 12:49:43;;;;;;;5.47;2.50;;;;;;;;;;5035010;28;20479;-81
2023/10/27 12:52:09;;;;;;;5.53;2.13;;;;;;;;;;5016481;28;20928;-81
2023/10/27 12:54:38;;;;;;;6.97;3.80;;;;;;;;;;5033389;28;20777;-81
2023/10/27 12:57:05;;;;;;;10.23;2.92;;;;;;;;;;5054043;28;20559;-81
2023/10/27 12:59:31;;;;;;;7.73;2.53;;;;;;;;;;5053796;28;20185;-82
2023/10/27 13:01:57;;;;;;;4.80;1.80;;;;;;;;;;5052973;28;20558;-82
2023/10/27 13:04:26;;;;;;;7.35;3.47;;;;;;;;;;5054261;28;20401;-81
2023/10/27 13:06:52;;;;;;;6.55;2.53;;;;;;;;;;5054377;28;20595;-82
2023/10/27 13:09:19;;;;;;;7.38;2.70;;;;;;;;;;5053163;28;20177;-82
2023/10/27 13:11:45;;;;;;;5.88;2.40;;;;;;;;;;5036449;28;20207;-82
2023/10/27 13:14:11;;;;;;;6.30;2.40;;;;;;;;;;5018282;28;20288;-82
2023/10/27 13:16:40;;;;;;;7.20;3.05;;;;;;;;;;5033850;28;20181;-82
2023/10/27 13:19:08;;;;;;;8.15;3.50;;;;;;;;;;5034400;28;20178;-82
2023/10/27 13:21:35;;;;;;;6.93;2.70;;;;;;;;;;5032413;28;20194;-82
2023/10/27 13:24:01;;;;;;;6.07;2.25;;;;;;;;;;5032953;28;20316;-82
2023/10/27 13:26:29;;;;;;;5.57;3.40;;;;;;;;;;5049543;28;20190;-82
2023/10/27 13:28:56;;;;;;;5.95;2.70;;;;;;;;;;5032751;28;20497;-82
2023/10/27 13:31:22;;;;;;;3.50;2.13;;;;;;;;;;5032728;28;20196;-82
2023/10/27 13:33:49;;;;;;;8.30;1.90;;;;;;;;;;5049112;28;20290;-82
2023/10/27 13:36:15;;;;;;;7.43;2.83;;;;;;;;;;5049025;28;20754;-82
2023/10/27 13:38:41;;;;;;;6.03;1.75;;;;;;;;;;5049103;28;20703;-82
2023/10/27 13:41:20;;;;;;;6.60;2.13;;;;;;;;;;5034132;28;20182;-82
2023/10/27 13:43:46;;;;;;;4.75;1.83;;;;;;;;;;5033249;28;20459;-82
2023/10/27 13:46:16;;;;;;;3.53;1.60;;;;;;;;;;5049466;28;20186;-82
2023/10/27 13:48:45;;;;;;;6.55;1.67;;;;;;;;;;5033644;28;20178;-83
2023/10/27 13:51:12;;;;;;;6.63;2.00;;;;;;;;;;5050143;28;20190;-83
2023/10/27 13:53:38;;;;;;;3.67;1.80;;;;;;;;;;5048044;28;20652;-82
2023/10/27 13:56:06;;;;;;;6.68;1.67;;;;;;;;;;5056883;28;20208;-83
2023/10/27 13:58:32;;;;;;;8.60;1.83;;;;;;;;;;5056959;28;20161;-83
2023/10/27 14:01:01;;;;;;;6.87;2.67;;;;;;;;;;5057492;28;20577;-82
2023/10/27 14:03:27;;;;;;;4.73;2.33;;;;;;;;;;5057472;28;20459;-82
2023/10/27 14:05:53;;;;;;;4.37;1.57;;;;;;;;;;5055750;28;20418;-83
2023/10/27 14:08:20;;;;;;;3.63;1.73;;;;;;;;;;5045296;28;20417;-83
2023/10/27 14:10:46;;;;;;;3.72;1.83;;;;;;;;;;5037449;28;20408;-83
2023/10/27 14:13:12;;;;;;;7.17;1.70;;;;;;;;;;5019472;28;20634;-83
2023/10/27 14:15:38;;;;;;;6.07;2.00;;;;;;;;;;5019409;28;20512;-83
2023/10/27 14:18:05;;;;;;;7.27;1.80;;;;;;;;;;5036403;28;20405;-82
2023/10/27 14:20:31;;;;;;;3.30;1.70;;;;;;;;;;5040163;28;20436;-82
2023/10/27 14:22:57;;;;;;;7.30;2.20;;;;;;;;;;5056831;28;20205;-81
2023/10/27 14:25:26;;;;;;;4.50;2.07;;;;;;;;;;5057482;28;20872;-81
2023/10/27 14:27:52;;;;;;;4.37;1.43;;;;;;;;;;5050809;28;20949;-82
2023/10/27 14:30:18;;;;;;;4.07;1.20;;;;;;;;;;5036226;28;20401;-81
2023/10/27 14:32:45;;;;;;;6.70;1.47;;;;;;;;;;5037402;28;20415;-82
2023/10/27 14:35:11;;;;;;;2.20;1.30;;;;;;;;;;5036338;28;20408;-81